createdAt,value
2023-05-05T00:02:36.465Z,13.30
2023-05-05T00:06:00.095Z,13.30
2023-05-05T00:09:23.661Z,13.30
2023-05-05T00:12:47.220Z,13.20
2023-05-05T00:16:12.050Z,13.20
2023-05-05T00:19:35.598Z,13.10
2023-05-05T00:23:01.463Z,13.20
2023-05-05T00:26:25.108Z,13.20
2023-05-05T00:29:49.688Z,13.00
2023-05-05T00:33:15.960Z,13.10
2023-05-05T00:36:39.901Z,13.00
2023-05-05T00:40:03.927Z,13.00
2023-05-05T00:43:27.766Z,13.00
2023-05-05T00:46:51.570Z,13.00
2023-05-05T00:50:23.716Z,13.00
2023-05-05T00:53:48.295Z,13.00
2023-05-05T00:57:11.930Z,13.00
2023-05-05T01:00:35.598Z,13.00
2023-05-05T01:04:02.518Z,13.00
2023-05-05T01:07:38.687Z,12.90
2023-05-05T01:11:08.564Z,13.00
2023-05-05T01:14:40.796Z,13.00
2023-05-05T01:18:12.653Z,13.00
2023-05-05T01:21:39.597Z,13.00
2023-05-05T01:25:31.819Z,13.00
2023-05-05T01:29:19.551Z,13.00
2023-05-05T01:32:49.817Z,12.90
2023-05-05T01:36:22.784Z,12.90
2023-05-05T01:39:50.761Z,12.90
2023-05-05T01:43:16.323Z,12.90
2023-05-05T01:46:39.865Z,13.00
2023-05-05T01:50:07.307Z,13.00
2023-05-05T01:53:32.451Z,13.00
2023-05-05T01:56:57.856Z,13.10
2023-05-05T02:00:22.682Z,13.10
2023-05-05T02:03:56.790Z,13.10
2023-05-05T02:07:23.475Z,13.10
2023-05-05T02:10:49.384Z,13.10
2023-05-05T02:14:13.739Z,13.10
2023-05-05T02:17:38.281Z,13.10
2023-05-05T02:21:02.002Z,13.00
2023-05-05T02:24:27.227Z,12.90
2023-05-05T02:27:55.083Z,12.90
2023-05-05T02:31:19.811Z,12.90
2023-05-05T02:34:46.494Z,12.80
2023-05-05T02:38:17.184Z,12.70
2023-05-05T02:41:48.267Z,12.60
2023-05-05T02:45:21.432Z,12.50
2023-05-05T02:48:46.909Z,12.50
2023-05-05T02:52:10.545Z,12.40
2023-05-05T02:55:43.004Z,12.30
2023-05-05T02:59:19.585Z,12.30
2023-05-05T03:02:55.984Z,12.20
2023-05-05T03:06:26.628Z,12.10
2023-05-05T03:09:58.739Z,12.10
2023-05-05T03:13:25.740Z,12.10
2023-05-05T03:16:51.732Z,12.00
2023-05-05T03:20:16.054Z,12.00
2023-05-05T03:23:43.087Z,12.10
2023-05-05T03:27:14.526Z,12.00
2023-05-05T03:30:38.768Z,12.10
2023-05-05T03:34:04.095Z,12.20
2023-05-05T03:37:32.788Z,12.20
2023-05-05T03:40:57.128Z,12.30
2023-05-05T03:44:23.296Z,12.40
2023-05-05T03:47:46.981Z,12.40
2023-05-05T03:51:13.294Z,12.50
2023-05-05T03:54:37.217Z,12.60
2023-05-05T03:58:00.960Z,12.60
2023-05-05T04:01:24.916Z,12.60
2023-05-05T04:04:52.340Z,12.70
2023-05-05T04:08:18.209Z,12.70
2023-05-05T04:11:41.805Z,12.70
2023-05-05T04:15:07.675Z,12.70
2023-05-05T04:18:31.708Z,12.80
2023-05-05T04:21:55.974Z,12.80
2023-05-05T04:25:20.862Z,12.90
2023-05-05T04:28:45.919Z,12.80
2023-05-05T04:32:10.569Z,12.90
2023-05-05T04:35:34.285Z,12.80
2023-05-05T04:38:57.841Z,12.80
2023-05-05T04:42:23.059Z,12.80
2023-05-05T04:45:55.622Z,12.80
2023-05-05T04:49:22.848Z,12.80
2023-05-05T04:52:46.704Z,12.90
2023-05-05T04:56:10.224Z,12.90
2023-05-05T04:59:36.308Z,13.00
2023-05-05T05:02:59.908Z,13.00
2023-05-05T05:06:23.499Z,13.10
2023-05-05T05:09:47.120Z,13.20
2023-05-05T05:13:12.513Z,13.50
2023-05-05T05:16:37.948Z,13.70
2023-05-05T05:20:04.749Z,14.10
2023-05-05T05:23:29.458Z,14.90
2023-05-05T05:26:53.497Z,15.30
2023-05-05T05:30:17.679Z,15.60
2023-05-05T05:33:42.921Z,15.30
2023-05-05T05:37:06.955Z,14.90
2023-05-05T05:40:31.521Z,14.70
2023-05-05T05:43:56.009Z,14.30
2023-05-05T05:47:19.885Z,14.00
2023-05-05T05:50:47.730Z,13.90
2023-05-05T05:54:11.369Z,13.80
2023-05-05T05:57:34.921Z,13.70
2023-05-05T06:01:01.052Z,13.70
2023-05-05T06:04:26.357Z,13.80
2023-05-05T06:07:51.437Z,13.80
2023-05-05T06:11:16.874Z,13.80
2023-05-05T06:14:42.098Z,14.00
2023-05-05T06:18:07.035Z,14.30
2023-05-05T06:21:30.792Z,14.50
2023-05-05T06:24:56.173Z,14.80
2023-05-05T06:28:21.003Z,15.00
2023-05-05T06:31:44.895Z,15.00
2023-05-05T06:35:09.831Z,15.10
2023-05-05T06:38:33.886Z,15.40
2023-05-05T06:41:59.242Z,15.50
2023-05-05T06:45:22.917Z,15.60
2023-05-05T06:48:46.856Z,15.60
2023-05-05T06:52:11.391Z,15.40
2023-05-05T06:55:36.243Z,15.30
2023-05-05T06:59:01.473Z,15.20
2023-05-05T07:02:29.196Z,15.10
2023-05-05T07:05:54.841Z,15.20
2023-05-05T07:09:22.254Z,15.30
2023-05-05T07:12:46.269Z,15.40
2023-05-05T07:16:11.352Z,15.70
2023-05-05T07:19:34.912Z,16.00
2023-05-05T07:22:58.920Z,16.10
2023-05-05T07:26:22.980Z,16.40
2023-05-05T07:29:49.853Z,17.00
2023-05-05T07:33:18.842Z,17.40
2023-05-05T07:36:43.063Z,17.50
2023-05-05T07:40:08.813Z,17.70
2023-05-05T07:43:34.485Z,17.60
2023-05-05T07:46:58.950Z,17.40
2023-05-05T07:50:24.851Z,17.40
2023-05-05T07:53:51.142Z,17.50
2023-05-05T07:57:14.710Z,17.80
2023-05-05T08:00:44.412Z,17.90
2023-05-05T08:04:12.165Z,17.90
2023-05-05T08:07:42.245Z,18.20
2023-05-05T08:11:06.913Z,18.80
2023-05-05T08:14:31.289Z,19.00
2023-05-05T08:17:58.817Z,19.10
2023-05-05T08:21:22.981Z,19.00
2023-05-05T08:24:48.670Z,18.40
2023-05-05T08:28:13.014Z,18.30
2023-05-05T08:31:45.469Z,18.30
2023-05-05T08:35:10.864Z,18.40
2023-05-05T08:38:35.071Z,18.60
2023-05-05T08:42:00.512Z,18.90
2023-05-05T08:45:27.676Z,19.30
2023-05-05T08:48:56.469Z,20.20
2023-05-05T08:52:24.394Z,21.70
2023-05-05T08:55:54.961Z,23.20
2023-05-05T08:59:24.080Z,24.30
2023-05-05T09:02:48.449Z,25.40
2023-05-05T09:06:12.567Z,26.20
2023-05-05T09:09:37.233Z,27.70
2023-05-05T09:13:01.122Z,28.40
2023-05-05T09:16:26.054Z,27.80
2023-05-05T09:20:07.096Z,27.10
2023-05-05T09:23:31.370Z,26.20
2023-05-05T09:26:56.903Z,24.90
2023-05-05T09:30:26.884Z,24.40
2023-05-05T09:33:51.964Z,24.70
2023-05-05T09:37:28.658Z,25.70
2023-05-05T09:40:53.682Z,26.30
2023-05-05T09:44:17.263Z,27.20
2023-05-05T09:47:41.858Z,28.30
2023-05-05T09:51:07.154Z,28.70
2023-05-05T09:54:33.503Z,29.50
2023-05-05T09:57:57.307Z,29.50
2023-05-05T10:01:23.975Z,30.10
2023-05-05T10:04:48.951Z,30.90
2023-05-05T10:08:14.446Z,31.40
2023-05-05T10:11:38.365Z,32.10
2023-05-05T10:15:03.698Z,32.80
2023-05-05T10:18:30.082Z,31.60
2023-05-05T10:21:55.045Z,31.80
2023-05-05T10:25:27.824Z,31.40
2023-05-05T10:28:53.151Z,31.00
2023-05-05T10:32:51.992Z,30.70
2023-05-05T10:36:10.621Z,29.70
2023-05-05T10:39:37.211Z,29.00
2023-05-05T10:43:02.401Z,29.60
2023-05-05T10:46:27.846Z,30.00
2023-05-05T10:49:58.179Z,30.10
2023-05-05T10:53:25.004Z,29.80
2023-05-05T10:56:49.155Z,29.90
2023-05-05T11:00:53.531Z,29.20
2023-05-05T11:04:22.310Z,28.30
2023-05-05T11:07:46.440Z,27.40
2023-05-05T11:11:11.402Z,26.70
2023-05-05T11:14:35.120Z,26.60
2023-05-05T11:18:01.968Z,26.50
2023-05-05T11:21:27.721Z,26.20
2023-05-05T11:24:51.303Z,25.50
2023-05-05T11:28:17.237Z,25.10
2023-05-05T11:31:41.275Z,25.10
2023-05-05T11:35:07.725Z,24.90
2023-05-05T11:38:55.941Z,24.90
2023-05-05T11:42:25.638Z,25.10
2023-05-05T11:45:49.301Z,24.90
2023-05-05T11:49:12.943Z,24.70
2023-05-05T11:52:38.225Z,25.00
2023-05-05T11:56:08.663Z,25.40
2023-05-05T11:59:33.275Z,25.80
2023-05-05T12:02:58.576Z,25.40
2023-05-05T12:06:22.223Z,25.10
2023-05-05T12:09:49.202Z,24.70
2023-05-05T12:13:21.736Z,24.40
2023-05-05T12:16:55.642Z,24.40
2023-05-05T12:20:19.255Z,24.60
2023-05-05T12:23:42.861Z,24.70
2023-05-05T12:27:11.085Z,24.60
2023-05-05T12:30:34.997Z,24.80
2023-05-05T12:33:58.624Z,24.80
2023-05-05T12:37:23.115Z,24.70
2023-05-05T12:40:49.580Z,24.50
2023-05-05T12:44:14.661Z,24.40
2023-05-05T12:47:38.348Z,24.30
2023-05-05T12:51:27.029Z,24.30
2023-05-05T12:54:57.931Z,24.30
2023-05-05T12:58:21.580Z,24.20
2023-05-05T13:01:54.800Z,24.20
2023-05-05T13:05:30.589Z,24.00
2023-05-05T13:08:54.268Z,24.00
2023-05-05T13:12:19.332Z,24.00
2023-05-05T13:15:42.906Z,24.00
2023-05-05T13:19:07.863Z,24.20
2023-05-05T13:22:31.416Z,24.20
2023-05-05T13:25:54.900Z,24.20
2023-05-05T13:29:18.746Z,24.30
2023-05-05T13:32:42.308Z,24.30
2023-05-05T13:36:07.706Z,24.30
2023-05-05T13:39:31.302Z,24.40
2023-05-05T13:42:55.249Z,24.30
2023-05-05T13:46:20.378Z,24.30
2023-05-05T13:49:44.015Z,24.20
2023-05-05T13:53:09.934Z,23.80
2023-05-05T13:56:35.075Z,23.80
2023-05-05T13:59:58.596Z,23.60
2023-05-05T14:03:23.685Z,23.40
2023-05-05T14:06:47.437Z,23.00
2023-05-05T14:10:12.558Z,22.80
2023-05-05T14:13:36.085Z,22.70
2023-05-05T14:16:59.689Z,22.70
2023-05-05T14:20:23.434Z,22.40
2023-05-05T14:23:46.979Z,22.30
2023-05-05T14:27:15.109Z,22.20
2023-05-05T14:30:39.313Z,22.00
2023-05-05T14:34:02.936Z,21.90
2023-05-05T14:37:26.507Z,21.40
2023-05-05T14:40:50.010Z,21.20
2023-05-05T14:44:18.119Z,20.80
2023-05-05T14:47:42.666Z,20.30
2023-05-05T14:51:08.942Z,19.20
2023-05-05T14:54:33.524Z,17.70
2023-05-05T14:57:57.127Z,16.70
2023-05-05T15:01:25.209Z,16.10
2023-05-05T15:04:49.922Z,15.90
2023-05-05T15:08:14.730Z,15.80
2023-05-05T15:11:38.822Z,15.80
2023-05-05T15:15:02.454Z,15.80
2023-05-05T15:18:27.954Z,15.90
2023-05-05T15:21:53.928Z,16.20
2023-05-05T15:25:20.290Z,16.30
2023-05-05T15:28:43.882Z,16.20
2023-05-05T15:32:07.677Z,16.20
2023-05-05T15:35:33.226Z,16.20
2023-05-05T15:38:57.635Z,16.40
2023-05-05T15:42:21.674Z,16.60
2023-05-05T15:45:47.999Z,16.80
2023-05-05T15:49:15.089Z,17.10
2023-05-05T15:52:41.021Z,17.20
2023-05-05T15:56:04.881Z,17.40
2023-05-05T15:59:28.646Z,17.30
2023-05-05T16:02:52.699Z,17.40
2023-05-05T16:06:16.884Z,17.20
2023-05-05T16:09:42.093Z,17.10
2023-05-05T16:13:07.027Z,17.10
2023-05-05T16:16:31.708Z,17.10
2023-05-05T16:19:55.830Z,17.00
2023-05-05T16:23:19.684Z,16.90
2023-05-05T16:26:45.192Z,16.90
2023-05-05T16:30:12.771Z,16.70
2023-05-05T16:33:41.283Z,16.50
2023-05-05T16:37:05.740Z,16.20
2023-05-05T16:40:29.706Z,16.00
2023-05-05T16:43:55.273Z,15.90
2023-05-05T16:47:19.662Z,15.80
2023-05-05T16:50:43.282Z,15.60
2023-05-05T16:54:06.921Z,15.50
2023-05-05T16:57:30.581Z,15.50
2023-05-05T17:00:55.527Z,15.30
2023-05-05T17:04:19.024Z,15.10
2023-05-05T17:07:42.613Z,15.00
2023-05-05T17:11:06.269Z,14.80
2023-05-05T17:14:29.921Z,14.70
2023-05-05T17:17:54.928Z,14.70
2023-05-05T17:21:18.510Z,14.90
2023-05-05T17:24:42.932Z,14.90
2023-05-05T17:28:07.315Z,14.60
2023-05-05T17:31:30.862Z,14.60
2023-05-05T17:34:56.246Z,14.70
2023-05-05T17:38:19.824Z,14.90
2023-05-05T17:41:43.401Z,14.80
2023-05-05T17:45:08.223Z,14.80
2023-05-05T17:48:32.218Z,14.80
2023-05-05T17:51:57.440Z,15.00
2023-05-05T17:55:21.333Z,15.00
2023-05-05T17:58:44.932Z,15.00
2023-05-05T18:02:09.048Z,14.90
2023-05-05T18:05:32.923Z,14.80
2023-05-05T18:08:58.030Z,14.70
2023-05-05T18:12:21.860Z,14.70
2023-05-05T18:15:45.461Z,14.70
2023-05-05T18:19:09.019Z,14.80
2023-05-05T18:22:32.556Z,14.70
2023-05-05T18:25:57.472Z,14.70
2023-05-05T18:29:22.463Z,14.70
2023-05-05T18:32:46.023Z,14.60
2023-05-05T18:36:09.625Z,14.40
2023-05-05T18:39:33.173Z,14.00
2023-05-05T18:42:58.356Z,13.70
2023-05-05T18:46:22.453Z,13.60
2023-05-05T18:49:46.320Z,13.60
2023-05-05T18:53:10.733Z,13.50
2023-05-05T18:56:34.322Z,13.40
2023-05-05T18:59:59.500Z,13.40
2023-05-05T19:03:23.040Z,13.40
2023-05-05T19:06:46.768Z,13.40
2023-05-05T19:10:11.738Z,13.30
2023-05-05T19:13:35.441Z,13.40
2023-05-05T19:17:01.342Z,13.30
2023-05-05T19:20:25.067Z,13.40
2023-05-05T19:23:48.579Z,13.40
2023-05-05T19:27:15.390Z,13.40
2023-05-05T19:30:40.016Z,13.60
2023-05-05T19:34:06.115Z,13.70
2023-05-05T19:37:29.686Z,13.60
2023-05-05T19:40:53.966Z,13.70
2023-05-05T19:44:18.102Z,13.70
2023-05-05T19:47:41.680Z,13.80
2023-05-05T19:51:06.680Z,13.80
2023-05-05T19:54:30.236Z,13.80
2023-05-05T19:57:53.886Z,13.80
2023-05-05T20:01:18.030Z,13.70
2023-05-05T20:04:41.944Z,13.60
2023-05-05T20:08:09.472Z,13.60
2023-05-05T20:11:35.455Z,13.60
2023-05-05T20:14:59.263Z,13.60
2023-05-05T20:18:23.002Z,13.50
2023-05-05T20:21:46.922Z,13.50
2023-05-05T20:25:15.810Z,13.40
2023-05-05T20:28:42.589Z,13.30
2023-05-05T20:32:08.120Z,13.30
2023-05-05T20:35:31.980Z,13.20
2023-05-05T20:38:55.987Z,13.20
2023-05-05T20:42:22.945Z,13.10
2023-05-05T20:45:47.222Z,13.10
2023-05-05T20:49:10.982Z,13.10
2023-05-05T20:52:35.297Z,13.20
2023-05-05T20:55:58.986Z,13.20
2023-05-05T20:59:24.390Z,13.30
2023-05-05T21:02:48.094Z,13.30
2023-05-05T21:06:12.076Z,13.30
2023-05-05T21:09:36.261Z,13.30
2023-05-05T21:12:59.984Z,13.30
2023-05-05T21:16:27.495Z,13.20
2023-05-05T21:19:52.440Z,13.30
2023-05-05T21:23:16.058Z,13.20
2023-05-05T21:26:40.245Z,13.20
2023-05-05T21:30:08.603Z,13.10
2023-05-05T21:33:36.406Z,13.00
2023-05-05T21:37:00.008Z,13.00
2023-05-05T21:40:24.098Z,12.90
2023-05-05T21:43:48.013Z,12.90
2023-05-05T21:47:13.063Z,12.90
2023-05-05T21:50:38.416Z,12.80
2023-05-05T21:54:02.125Z,12.90
2023-05-05T21:57:26.122Z,13.00
2023-05-05T22:00:52.324Z,13.00
2023-05-05T22:04:16.056Z,12.90
2023-05-05T22:07:41.282Z,12.90
2023-05-05T22:11:05.164Z,12.90
2023-05-05T22:14:29.154Z,13.00
2023-05-05T22:17:52.840Z,13.00
2023-05-05T22:21:16.456Z,12.90
2023-05-05T22:24:43.614Z,12.90
2023-05-05T22:28:07.201Z,12.90
2023-05-05T22:31:36.111Z,12.90
2023-05-05T22:35:01.457Z,12.90
2023-05-05T22:38:28.267Z,12.90
2023-05-05T22:41:53.195Z,12.90
2023-05-05T22:45:17.438Z,13.00
2023-05-05T22:48:41.192Z,13.00
2023-05-05T22:52:05.286Z,13.00
2023-05-05T22:55:29.190Z,13.00
2023-05-05T22:58:54.507Z,13.00
2023-05-05T23:02:18.136Z,13.00
2023-05-05T23:05:41.963Z,13.00
2023-05-05T23:09:06.149Z,13.10
2023-05-05T23:12:30.225Z,13.10
2023-05-05T23:15:57.892Z,13.10
2023-05-05T23:19:22.156Z,13.10
2023-05-05T23:22:46.184Z,13.10
2023-05-05T23:26:10.238Z,13.10
2023-05-05T23:29:34.476Z,13.10
2023-05-05T23:33:00.832Z,13.10
2023-05-05T23:36:25.822Z,13.10
2023-05-05T23:39:50.258Z,13.00
2023-05-05T23:43:14.254Z,13.00
2023-05-05T23:46:38.310Z,13.00
2023-05-05T23:50:04.006Z,13.00
2023-05-05T23:53:28.271Z,12.90
2023-05-05T23:56:52.238Z,12.80
